createdAt,value
2024-03-04T00:00:56.635Z,2.90
2024-03-04T00:03:25.192Z,2.60
2024-03-04T00:05:53.249Z,2.07
2024-03-04T00:08:21.264Z,2.10
2024-03-04T00:10:49.421Z,2.53
2024-03-04T00:13:18.486Z,2.10
2024-03-04T00:15:46.581Z,2.10
2024-03-04T00:18:16.122Z,2.60
2024-03-04T00:20:44.155Z,2.27
2024-03-04T00:23:12.183Z,2.60
2024-03-04T00:25:40.326Z,2.53
2024-03-04T00:28:09.745Z,2.00
2024-03-04T00:30:37.921Z,2.20
2024-03-04T00:33:06.381Z,2.30
2024-03-04T00:35:35.742Z,2.20
2024-03-04T00:38:04.368Z,2.27
2024-03-04T00:40:32.429Z,2.60
2024-03-04T00:43:00.545Z,2.33
2024-03-04T00:45:28.883Z,2.40
2024-03-04T00:47:56.892Z,2.30
2024-03-04T00:50:25.021Z,1.80
2024-03-04T00:52:56.690Z,1.87
2024-03-04T00:55:24.888Z,2.00
2024-03-04T00:57:53.380Z,1.60
2024-03-04T01:00:21.506Z,1.53
2024-03-04T01:02:49.489Z,1.40
2024-03-04T01:05:17.596Z,1.40
2024-03-04T01:07:45.652Z,1.43
2024-03-04T01:10:15.313Z,1.63
2024-03-04T01:12:43.820Z,2.00
2024-03-04T01:15:11.815Z,1.97
2024-03-04T01:17:40.201Z,2.40
2024-03-04T01:20:14.582Z,2.13
2024-03-04T01:22:42.906Z,2.40
2024-03-04T01:25:11.448Z,2.27
2024-03-04T01:27:40.921Z,2.13
2024-03-04T01:30:11.608Z,2.70
2024-03-04T01:32:39.837Z,2.23
2024-03-04T01:35:09.049Z,2.20
2024-03-04T01:37:37.279Z,2.90
2024-03-04T01:40:06.374Z,2.70
2024-03-04T01:42:34.375Z,3.10
2024-03-04T01:45:04.206Z,3.13
2024-03-04T01:47:33.099Z,2.53
2024-03-04T01:50:01.241Z,2.40
2024-03-04T01:52:29.678Z,2.80
2024-03-04T01:54:58.720Z,2.30
2024-03-04T01:57:26.825Z,2.10
2024-03-04T01:59:54.894Z,1.97
2024-03-04T02:02:24.516Z,1.97
2024-03-04T02:04:53.183Z,2.20
2024-03-04T02:07:21.368Z,2.10
2024-03-04T02:09:50.923Z,2.40
2024-03-04T02:12:19.265Z,2.30
2024-03-04T02:14:47.434Z,2.57
2024-03-04T02:17:16.018Z,2.30
2024-03-04T02:19:45.667Z,2.37
2024-03-04T02:22:16.148Z,2.40
2024-03-04T02:24:45.605Z,2.33
2024-03-04T02:27:13.596Z,2.17
2024-03-04T02:29:41.625Z,2.40
2024-03-04T02:32:10.960Z,2.00
2024-03-04T02:34:40.010Z,2.33
2024-03-04T02:37:08.045Z,1.97
2024-03-04T02:39:37.466Z,2.10
2024-03-04T02:42:08.125Z,1.93
2024-03-04T02:44:36.828Z,2.40
2024-03-04T02:47:05.024Z,1.97
2024-03-04T02:49:35.803Z,2.30
2024-03-04T02:52:04.582Z,2.10
2024-03-04T02:54:32.723Z,2.53
2024-03-04T02:57:00.749Z,2.10
2024-03-04T02:59:30.120Z,2.03
2024-03-04T03:01:58.176Z,2.07
2024-03-04T03:04:27.290Z,2.20
2024-03-04T03:06:55.394Z,2.20
2024-03-04T03:09:23.463Z,1.80
2024-03-04T03:11:51.530Z,1.90
2024-03-04T03:14:19.660Z,1.90
2024-03-04T03:16:50.697Z,1.80
2024-03-04T03:19:23.273Z,2.10
2024-03-04T03:21:52.874Z,2.50
2024-03-04T03:24:21.003Z,3.00
2024-03-04T03:26:49.102Z,3.00
2024-03-04T03:29:17.238Z,2.40
2024-03-04T03:31:45.797Z,3.20
2024-03-04T03:34:15.201Z,2.10
2024-03-04T03:36:43.616Z,2.23
2024-03-04T03:39:13.474Z,1.73
2024-03-04T03:41:41.764Z,2.10
2024-03-04T03:44:09.879Z,2.10
2024-03-04T03:46:37.947Z,1.90
2024-03-04T03:49:05.999Z,1.80
2024-03-04T03:51:35.426Z,2.20
2024-03-04T03:54:03.403Z,1.97
2024-03-04T03:56:31.432Z,2.07
2024-03-04T03:58:59.456Z,2.10
2024-03-04T04:01:27.601Z,1.63
2024-03-04T04:03:55.772Z,1.70
2024-03-04T04:06:23.829Z,2.20
2024-03-04T04:08:53.150Z,2.17
2024-03-04T04:11:21.553Z,2.20
2024-03-04T04:13:49.602Z,1.93
2024-03-04T04:16:17.590Z,1.90
2024-03-04T04:18:45.680Z,2.13
2024-03-04T04:21:13.777Z,2.10
2024-03-04T04:23:41.980Z,2.87
2024-03-04T04:26:11.546Z,3.00
2024-03-04T04:28:42.023Z,2.77
2024-03-04T04:31:20.580Z,3.00
2024-03-04T04:33:48.888Z,2.63
2024-03-04T04:36:17.758Z,2.60
2024-03-04T04:38:45.942Z,2.77
2024-03-04T04:41:15.545Z,3.13
2024-03-04T04:43:43.687Z,2.43
2024-03-04T04:46:11.788Z,2.50
2024-03-04T04:48:40.009Z,3.17
2024-03-04T04:51:08.152Z,3.20
2024-03-04T04:53:36.168Z,3.43
2024-03-04T04:56:04.546Z,3.20
2024-03-04T04:58:35.694Z,2.10
2024-03-04T05:01:04.149Z,2.67
2024-03-04T05:03:46.973Z,2.00
2024-03-04T05:06:21.536Z,1.87
2024-03-04T05:08:49.606Z,2.10
2024-03-04T05:11:17.860Z,1.90
2024-03-04T05:13:49.562Z,2.13
2024-03-04T05:16:17.695Z,2.00
2024-03-04T05:18:45.984Z,2.00
2024-03-04T05:21:14.327Z,2.10
2024-03-04T05:23:42.341Z,1.97
2024-03-04T05:26:10.389Z,1.87
2024-03-04T05:28:38.464Z,1.70
2024-03-04T05:31:08.032Z,1.77
2024-03-04T05:33:37.574Z,2.10
2024-03-04T05:36:09.502Z,2.40
2024-03-04T05:38:37.715Z,2.83
2024-03-04T05:41:06.047Z,3.50
2024-03-04T05:43:34.209Z,3.50
2024-03-04T05:46:02.500Z,3.60
2024-03-04T05:48:33.418Z,3.33
2024-03-04T05:51:04.497Z,3.50
2024-03-04T05:53:32.677Z,3.20
2024-03-04T05:56:00.691Z,3.23
2024-03-04T05:58:28.742Z,3.30
2024-03-04T06:00:58.265Z,2.63
2024-03-04T06:03:26.450Z,2.77
2024-03-04T06:05:55.955Z,2.63
2024-03-04T06:08:23.973Z,2.30
2024-03-04T06:10:52.088Z,2.23
2024-03-04T06:13:20.184Z,2.07
2024-03-04T06:15:48.195Z,2.37
2024-03-04T06:18:16.322Z,1.73
2024-03-04T06:20:45.531Z,1.70
2024-03-04T06:23:14.978Z,2.60
2024-03-04T06:25:43.555Z,2.80
2024-03-04T06:28:11.611Z,2.57
2024-03-04T06:30:39.915Z,2.73
2024-03-04T06:33:08.360Z,2.40
2024-03-04T06:35:36.873Z,2.17
2024-03-04T06:38:06.142Z,2.27
2024-03-04T06:40:35.539Z,2.43
2024-03-04T06:43:03.709Z,2.70
2024-03-04T06:45:31.700Z,2.53
2024-03-04T06:48:03.276Z,2.27
2024-03-04T06:50:31.891Z,2.07
2024-03-04T06:53:00.986Z,2.20
2024-03-04T06:55:29.067Z,2.10
2024-03-04T06:57:58.588Z,1.60
2024-03-04T07:00:26.724Z,1.77
2024-03-04T07:02:54.733Z,1.50
2024-03-04T07:05:22.809Z,1.73
2024-03-04T07:07:50.867Z,2.00
2024-03-04T07:10:19.082Z,1.43
2024-03-04T07:12:47.590Z,1.60
2024-03-04T07:15:17.249Z,1.90
2024-03-04T07:17:45.479Z,1.43
2024-03-04T07:20:13.933Z,1.77
2024-03-04T07:22:42.007Z,2.23
2024-03-04T07:25:10.907Z,2.13
2024-03-04T07:27:39.064Z,2.53
2024-03-04T07:30:09.704Z,2.17
2024-03-04T07:32:39.302Z,3.03
2024-03-04T07:35:08.093Z,2.83
2024-03-04T07:37:36.231Z,3.10
2024-03-04T07:40:05.263Z,2.80
2024-03-04T07:42:33.449Z,2.77
2024-03-04T07:45:01.521Z,2.70
2024-03-04T07:47:29.661Z,2.90
2024-03-04T07:49:59.632Z,2.13
2024-03-04T07:52:27.742Z,2.57
2024-03-04T07:54:55.741Z,2.27
2024-03-04T07:57:24.965Z,2.20
2024-03-04T07:59:54.399Z,2.10
2024-03-04T08:02:22.457Z,2.50
2024-03-04T08:04:50.586Z,2.57
2024-03-04T08:07:20.007Z,2.53
2024-03-04T08:09:48.122Z,2.40
2024-03-04T08:12:16.232Z,2.17
2024-03-04T08:14:44.430Z,2.10
2024-03-04T08:17:12.489Z,2.67
2024-03-04T08:19:40.557Z,2.43
2024-03-04T08:22:08.691Z,2.97
2024-03-04T08:24:38.115Z,2.57
2024-03-04T08:27:06.413Z,2.67
2024-03-04T08:29:35.339Z,2.80
2024-03-04T08:32:05.500Z,3.27
2024-03-04T08:34:34.172Z,3.63
2024-03-04T08:37:02.816Z,3.50
2024-03-04T08:39:31.061Z,2.70
2024-03-04T08:42:00.970Z,3.10
2024-03-04T08:44:31.583Z,1.80
2024-03-04T08:46:59.774Z,2.73
2024-03-04T08:49:27.848Z,2.70
2024-03-04T08:51:57.461Z,3.00
2024-03-04T08:54:27.192Z,3.10
2024-03-04T08:56:55.302Z,3.17
2024-03-04T08:59:24.671Z,2.70
2024-03-04T09:01:53.805Z,2.17
2024-03-04T09:04:22.304Z,2.13
2024-03-04T09:06:50.589Z,2.57
2024-03-04T09:09:18.818Z,2.70
2024-03-04T09:11:46.947Z,2.57
2024-03-04T09:14:14.974Z,2.40
2024-03-04T09:16:44.417Z,2.57
2024-03-04T09:19:12.906Z,1.57
2024-03-04T09:21:41.172Z,2.17
2024-03-04T09:24:09.200Z,2.00
2024-03-04T09:26:37.685Z,1.90
2024-03-04T09:29:05.838Z,1.83
2024-03-04T09:31:34.862Z,2.00
2024-03-04T09:34:05.334Z,2.30
2024-03-04T09:36:33.652Z,1.80
2024-03-04T09:39:01.708Z,2.13
2024-03-04T09:41:32.124Z,2.03
2024-03-04T09:44:03.216Z,1.83
2024-03-04T09:46:33.274Z,2.10
2024-03-04T09:49:02.050Z,2.27
2024-03-04T09:51:33.755Z,1.70
2024-03-04T09:54:02.660Z,1.50
2024-03-04T09:56:30.731Z,2.00
2024-03-04T09:58:59.159Z,1.63
2024-03-04T10:01:27.714Z,2.00
2024-03-04T10:03:56.385Z,1.80
2024-03-04T10:06:24.408Z,2.23
2024-03-04T10:08:53.889Z,1.97
2024-03-04T10:11:21.897Z,1.80
2024-03-04T10:13:50.087Z,1.87
2024-03-04T10:16:18.177Z,2.28
2024-03-04T10:19:02.342Z,2.47
2024-03-04T10:21:31.600Z,2.90
2024-03-04T10:24:08.937Z,2.60
2024-03-04T10:26:42.855Z,3.10
2024-03-04T10:29:12.689Z,2.93
2024-03-04T10:31:50.600Z,3.13
2024-03-04T10:34:18.907Z,2.50
2024-03-04T10:36:48.765Z,4.60
2024-03-04T10:39:18.267Z,3.10
2024-03-04T10:41:49.079Z,2.93
2024-03-04T10:44:27.215Z,3.10
2024-03-04T10:46:59.542Z,2.53
2024-03-04T10:49:31.121Z,2.50
2024-03-04T10:52:08.708Z,2.93
2024-03-04T10:54:43.735Z,2.70
2024-03-04T10:57:27.544Z,2.87
2024-03-04T10:59:57.942Z,3.00
2024-03-04T11:02:37.815Z,2.60
2024-03-04T11:05:09.445Z,2.58
2024-03-04T11:07:42.979Z,2.40
2024-03-04T11:10:22.162Z,2.80
2024-03-04T11:13:00.889Z,3.13
2024-03-04T11:15:32.897Z,2.63
2024-03-04T11:18:06.198Z,2.45
2024-03-04T11:20:34.833Z,2.57
2024-03-04T11:23:04.558Z,2.23
2024-03-04T11:25:34.302Z,2.80
2024-03-04T11:28:02.599Z,2.15
2024-03-04T11:30:31.060Z,2.70
2024-03-04T11:33:19.172Z,3.07
2024-03-04T11:35:47.441Z,2.57
2024-03-04T11:38:15.531Z,2.60
2024-03-04T11:40:47.905Z,2.60
2024-03-04T11:43:43.043Z,2.17
2024-03-04T11:46:13.090Z,2.53
2024-03-04T11:48:42.526Z,2.38
2024-03-04T11:51:11.083Z,2.88
2024-03-04T11:53:40.106Z,2.70
2024-03-04T11:56:09.560Z,2.87
2024-03-04T11:58:38.881Z,2.85
2024-03-04T12:01:13.425Z,2.45
2024-03-04T12:03:54.537Z,2.97
2024-03-04T12:06:22.863Z,2.47
2024-03-04T12:09:08.107Z,3.25
2024-03-04T12:11:41.793Z,3.25
2024-03-04T12:14:10.001Z,3.60
2024-03-04T12:16:40.193Z,3.13
2024-03-04T12:19:08.514Z,3.33
2024-03-04T12:21:38.498Z,3.38
2024-03-04T12:24:08.471Z,2.90
2024-03-04T12:26:37.134Z,3.42
2024-03-04T12:29:08.241Z,3.65
2024-03-04T12:31:39.067Z,3.97
2024-03-04T12:34:09.228Z,3.63
2024-03-04T12:36:43.072Z,3.40
2024-03-04T12:39:15.416Z,3.63
2024-03-04T12:41:43.601Z,3.40
2024-03-04T12:44:12.986Z,3.63
2024-03-04T12:46:42.596Z,3.75
2024-03-04T12:49:11.335Z,4.13
2024-03-04T12:51:38.392Z,3.72
2024-03-04T12:54:06.523Z,3.60
2024-03-04T12:56:34.533Z,3.80
2024-03-04T12:59:02.919Z,4.00
2024-03-04T13:01:32.848Z,4.40
2024-03-04T13:04:04.965Z,4.25
2024-03-04T13:06:33.032Z,3.75
2024-03-04T13:09:00.965Z,3.80
2024-03-04T13:11:28.957Z,3.80
2024-03-04T13:13:56.897Z,3.90
2024-03-04T13:16:24.951Z,3.60
2024-03-04T13:18:55.153Z,3.95
2024-03-04T13:21:23.107Z,3.58
2024-03-04T13:23:51.218Z,3.65
2024-03-04T13:26:19.317Z,3.33
2024-03-04T13:28:47.341Z,3.67
2024-03-04T13:31:15.341Z,3.92
2024-03-04T13:33:43.385Z,4.03
2024-03-04T13:36:12.750Z,3.53
2024-03-04T13:38:40.681Z,4.15
2024-03-04T13:41:08.610Z,3.72
2024-03-04T13:43:36.633Z,3.55
2024-03-04T13:46:05.060Z,3.97
2024-03-04T13:48:33.095Z,3.45
2024-03-04T13:51:01.056Z,3.83
2024-03-04T13:53:30.403Z,3.55
2024-03-04T13:55:58.410Z,3.58
2024-03-04T13:58:26.359Z,3.63
2024-03-04T14:00:54.563Z,3.88
2024-03-04T14:03:22.861Z,3.60
2024-03-04T14:05:50.898Z,3.10
2024-03-04T14:08:19.180Z,3.40
2024-03-04T14:10:48.607Z,3.22
2024-03-04T14:13:16.684Z,3.40
2024-03-04T14:15:47.614Z,3.80
2024-03-04T14:18:15.824Z,3.40
2024-03-04T14:20:43.791Z,3.88
2024-03-04T14:23:11.762Z,3.33
2024-03-04T14:25:39.794Z,3.33
2024-03-04T14:28:09.418Z,3.35
2024-03-04T14:30:37.399Z,3.22
2024-03-04T14:33:05.899Z,3.25
2024-03-04T14:35:35.695Z,3.17
2024-03-04T14:38:04.730Z,3.38
2024-03-04T14:40:32.747Z,3.17
2024-03-04T14:43:00.947Z,3.50
2024-03-04T14:45:30.318Z,2.95
2024-03-04T14:47:58.275Z,2.90
2024-03-04T14:50:27.056Z,2.45
2024-03-04T14:52:55.106Z,2.78
2024-03-04T14:55:23.249Z,3.08
2024-03-04T14:57:51.174Z,2.78
2024-03-04T15:00:20.263Z,2.55
2024-03-04T15:02:49.661Z,3.08
2024-03-04T15:05:19.571Z,2.53
2024-03-04T15:07:47.646Z,2.90
2024-03-04T15:10:16.056Z,3.00
2024-03-04T15:12:45.222Z,2.92
2024-03-04T15:15:15.512Z,2.90
2024-03-04T15:17:43.881Z,3.13
2024-03-04T15:20:13.875Z,2.88
2024-03-04T15:22:43.690Z,3.13
2024-03-04T15:25:12.515Z,3.40
2024-03-04T15:27:40.751Z,3.10
2024-03-04T15:30:09.856Z,2.70
2024-03-04T15:32:38.237Z,2.70
2024-03-04T15:35:07.362Z,3.05
2024-03-04T15:37:37.492Z,2.92
2024-03-04T15:40:07.480Z,2.90
2024-03-04T15:42:36.026Z,2.95
2024-03-04T15:45:05.706Z,2.92
2024-03-04T15:47:33.645Z,2.70
2024-03-04T15:50:01.694Z,2.92
2024-03-04T15:52:29.681Z,2.45
2024-03-04T15:54:59.022Z,3.13
2024-03-04T15:57:27.068Z,2.70
2024-03-04T15:59:55.158Z,3.05
2024-03-04T16:02:23.128Z,3.30
2024-03-04T16:04:51.144Z,3.00
2024-03-04T16:07:19.235Z,3.35
2024-03-04T16:09:48.061Z,3.75
2024-03-04T16:12:17.394Z,3.60
2024-03-04T16:14:45.603Z,3.65
2024-03-04T16:17:13.582Z,3.45
2024-03-04T16:19:41.619Z,3.30
2024-03-04T16:22:09.684Z,3.42
2024-03-04T16:24:40.160Z,3.55
2024-03-04T16:27:08.459Z,4.03
2024-03-04T16:29:39.060Z,3.90
2024-03-04T16:32:08.863Z,3.70
2024-03-04T16:34:36.810Z,3.42
2024-03-04T16:37:05.180Z,3.20
2024-03-04T16:39:33.286Z,3.40
2024-03-04T16:42:01.320Z,3.40
2024-03-04T16:44:29.284Z,3.78
2024-03-04T16:46:58.630Z,3.40
2024-03-04T16:49:26.938Z,3.60
2024-03-04T16:51:54.898Z,3.58
2024-03-04T16:54:22.821Z,3.75
2024-03-04T16:56:50.827Z,3.42
2024-03-04T16:59:18.776Z,2.90
2024-03-04T17:01:49.684Z,2.70
2024-03-04T17:04:20.517Z,2.85
2024-03-04T17:06:48.489Z,2.73
2024-03-04T17:09:18.590Z,3.25
2024-03-04T17:11:46.584Z,3.35
2024-03-04T17:14:14.654Z,2.60
2024-03-04T17:16:44.218Z,3.10
2024-03-04T17:19:12.670Z,2.97
2024-03-04T17:21:46.466Z,2.72
2024-03-04T17:24:14.533Z,2.88
2024-03-04T17:26:43.655Z,2.90
2024-03-04T17:29:12.239Z,3.33
2024-03-04T17:31:40.517Z,3.55
2024-03-04T17:34:08.740Z,3.40
2024-03-04T17:36:41.021Z,4.10
2024-03-04T17:39:11.357Z,3.55
2024-03-04T17:41:39.379Z,3.75
2024-03-04T17:44:07.376Z,3.17
2024-03-04T17:46:36.756Z,4.10
2024-03-04T17:49:06.869Z,4.22
2024-03-04T17:51:40.712Z,4.32
2024-03-04T17:54:10.365Z,4.78
2024-03-04T17:56:38.390Z,4.60
2024-03-04T17:59:07.341Z,5.60
2024-03-04T18:01:35.647Z,6.00
2024-03-04T18:04:05.574Z,6.20
2024-03-04T18:06:34.923Z,5.60
2024-03-04T18:09:03.945Z,6.22
2024-03-04T18:11:34.479Z,6.93
2024-03-04T18:14:04.150Z,8.53
2024-03-04T18:16:33.740Z,8.10
2024-03-04T18:19:01.815Z,8.50
2024-03-04T18:21:30.093Z,8.18
2024-03-04T18:23:58.158Z,7.38
2024-03-04T18:26:26.635Z,6.72
2024-03-04T18:28:56.110Z,7.43
2024-03-04T18:31:24.327Z,6.67
2024-03-04T18:33:52.339Z,7.20
2024-03-04T18:36:20.491Z,7.00
2024-03-04T18:38:48.549Z,6.53
2024-03-04T18:41:16.743Z,7.63
2024-03-04T18:43:45.143Z,8.43
2024-03-04T18:46:15.842Z,8.30
2024-03-04T18:48:44.428Z,8.00
2024-03-04T18:51:13.422Z,8.63
2024-03-04T18:53:41.787Z,7.60
2024-03-04T18:56:13.572Z,7.32
2024-03-04T18:58:42.170Z,7.77
2024-03-04T19:01:13.205Z,7.73
2024-03-04T19:03:42.791Z,8.13
2024-03-04T19:06:10.688Z,8.37
2024-03-04T19:08:38.613Z,7.83
2024-03-04T19:11:12.695Z,8.60
2024-03-04T19:13:44.104Z,8.10
2024-03-04T19:16:12.249Z,7.80
2024-03-04T19:18:40.429Z,8.18
2024-03-04T19:21:16.728Z,8.23
2024-03-04T19:23:44.695Z,8.67
2024-03-04T19:26:16.240Z,9.17
2024-03-04T19:28:44.557Z,9.13
2024-03-04T19:31:19.942Z,9.93
2024-03-04T19:33:50.805Z,8.93
2024-03-04T19:36:20.260Z,9.03
2024-03-04T19:38:48.216Z,9.13
2024-03-04T19:41:20.872Z,9.20
2024-03-04T19:43:49.064Z,9.53
2024-03-04T19:46:19.207Z,9.70
2024-03-04T19:48:48.289Z,10.02
2024-03-04T19:51:17.901Z,10.10
2024-03-04T19:53:47.831Z,9.83
2024-03-04T19:56:16.360Z,9.53
2024-03-04T19:58:46.595Z,9.50
2024-03-04T20:01:15.496Z,10.30
2024-03-04T20:03:44.692Z,9.90
2024-03-04T20:06:13.018Z,9.50
2024-03-04T20:08:42.407Z,9.90
2024-03-04T20:11:14.594Z,9.93
2024-03-04T20:13:43.926Z,9.40
2024-03-04T20:16:14.649Z,9.63
2024-03-04T20:18:42.856Z,9.53
2024-03-04T20:21:12.327Z,9.23
2024-03-04T20:23:42.013Z,9.30
2024-03-04T20:26:10.061Z,10.27
2024-03-04T20:28:40.402Z,9.47
2024-03-04T20:31:08.638Z,9.57
2024-03-04T20:33:36.663Z,9.20
2024-03-04T20:36:08.285Z,10.13
2024-03-04T20:38:36.295Z,9.63
2024-03-04T20:41:06.424Z,9.47
2024-03-04T20:43:34.679Z,10.27
2024-03-04T20:46:04.507Z,10.13
2024-03-04T20:48:32.452Z,10.33
2024-03-04T20:51:00.483Z,10.43
2024-03-04T20:53:28.454Z,11.73
2024-03-04T20:55:56.646Z,11.13
2024-03-04T20:58:24.717Z,11.37
2024-03-04T21:00:52.666Z,11.00
2024-03-04T21:03:22.798Z,10.47
2024-03-04T21:05:50.819Z,10.60
2024-03-04T21:08:18.733Z,10.87
2024-03-04T21:10:48.305Z,11.97
2024-03-04T21:13:16.411Z,12.40
2024-03-04T21:15:44.514Z,11.83
2024-03-04T21:18:12.522Z,11.77
2024-03-04T21:20:41.911Z,11.43
2024-03-04T21:23:10.346Z,11.38
2024-03-04T21:25:38.611Z,11.33
2024-03-04T21:28:07.499Z,11.70
2024-03-04T21:30:35.479Z,12.07
2024-03-04T21:33:03.508Z,11.67
2024-03-04T21:35:31.605Z,11.47
2024-03-04T21:38:00.940Z,11.83
2024-03-04T21:40:29.159Z,10.53
2024-03-04T21:42:57.163Z,11.43
2024-03-04T21:45:25.316Z,11.17
2024-03-04T21:47:53.349Z,11.23
2024-03-04T21:50:21.387Z,10.97
2024-03-04T21:52:49.337Z,10.33
2024-03-04T21:55:18.834Z,10.87
2024-03-04T21:57:47.369Z,11.23
2024-03-04T22:00:20.018Z,10.40
2024-03-04T22:02:48.283Z,10.77
2024-03-04T22:05:17.424Z,11.10
2024-03-04T22:07:45.708Z,11.15
2024-03-04T22:10:13.745Z,9.63
2024-03-04T22:12:43.380Z,10.17
2024-03-04T22:15:12.031Z,9.80
2024-03-04T22:17:40.093Z,9.33
2024-03-04T22:20:13.820Z,9.17
2024-03-04T22:22:42.348Z,9.73
2024-03-04T22:25:11.141Z,9.70
2024-03-04T22:27:39.165Z,9.67
2024-03-04T22:30:10.210Z,8.70
2024-03-04T22:32:39.623Z,9.30
2024-03-04T22:35:08.810Z,8.90
2024-03-04T22:37:37.882Z,9.48
2024-03-04T22:40:09.537Z,8.67
2024-03-04T22:42:37.753Z,8.90
2024-03-04T22:45:06.116Z,9.00
2024-03-04T22:47:35.555Z,8.80
2024-03-04T22:50:04.678Z,9.73
2024-03-04T22:52:32.874Z,9.00
2024-03-04T22:55:00.926Z,9.00
2024-03-04T22:57:28.995Z,7.80
2024-03-04T22:59:56.900Z,8.63
2024-03-04T23:02:24.995Z,8.07
2024-03-04T23:04:54.617Z,9.20
2024-03-04T23:07:22.946Z,8.27
2024-03-04T23:09:50.970Z,8.40
2024-03-04T23:12:18.914Z,9.37
2024-03-04T23:14:46.852Z,8.95
2024-03-04T23:17:14.828Z,9.83
2024-03-04T23:19:42.983Z,9.30
2024-03-04T23:22:12.523Z,9.60
2024-03-04T23:24:40.473Z,9.03
2024-03-04T23:27:08.411Z,8.90
2024-03-04T23:29:36.400Z,8.67
2024-03-04T23:32:04.516Z,9.13
2024-03-04T23:34:32.592Z,9.00
2024-03-04T23:37:01.736Z,8.20
2024-03-04T23:39:31.146Z,9.63
2024-03-04T23:41:59.994Z,9.13
2024-03-04T23:44:28.205Z,8.97
2024-03-04T23:46:56.364Z,8.83
2024-03-04T23:49:24.447Z,9.67
2024-03-04T23:51:53.968Z,9.70
2024-03-04T23:54:22.479Z,8.77
2024-03-04T23:56:51.779Z,9.00
2024-03-04T23:59:19.746Z,8.73
